createdAt,value
2022-09-23T00:02:09.123Z,19.30
2022-09-23T00:04:37.208Z,19.37
2022-09-23T00:07:05.263Z,18.80
2022-09-23T00:09:33.388Z,19.50
2022-09-23T00:12:08.171Z,20.90
2022-09-23T00:14:38.361Z,20.07
2022-09-23T00:17:06.977Z,21.07
2022-09-23T00:19:35.243Z,21.27
2022-09-23T00:22:03.168Z,21.97
2022-09-23T00:24:32.471Z,21.97
2022-09-23T00:27:01.866Z,22.73
2022-09-23T00:29:29.918Z,21.87
2022-09-23T00:31:57.866Z,21.23
2022-09-23T00:34:25.875Z,21.03
2022-09-23T00:36:53.807Z,21.10
2022-09-23T00:39:21.773Z,20.27
2022-09-23T00:41:49.792Z,20.27
2022-09-23T00:44:42.738Z,20.47
2022-09-23T00:47:16.287Z,20.73
2022-09-23T00:49:45.402Z,20.00
2022-09-23T00:52:19.047Z,18.80
2022-09-23T00:54:48.973Z,19.43
2022-09-23T00:57:20.203Z,18.60
2022-09-23T00:59:50.867Z,19.30
2022-09-23T01:02:21.777Z,19.40
2022-09-23T01:04:51.559Z,18.77
2022-09-23T01:07:19.863Z,18.50
2022-09-23T01:09:49.523Z,17.80
2022-09-23T01:12:35.386Z,17.83
2022-09-23T01:15:14.664Z,18.13
2022-09-23T01:17:52.070Z,17.97
2022-09-23T01:21:04.320Z,18.30
2022-09-23T01:24:04.496Z,16.70
2022-09-23T01:26:50.781Z,17.30
2022-09-23T01:29:41.165Z,17.47
2022-09-23T01:32:16.157Z,17.03
2022-09-23T01:34:50.611Z,16.90
2022-09-23T01:37:25.867Z,18.53
2022-09-23T01:40:04.491Z,17.97
2022-09-23T01:42:39.472Z,18.07
2022-09-23T01:45:17.116Z,18.17
2022-09-23T01:47:52.126Z,17.00
2022-09-23T01:50:39.344Z,17.13
2022-09-23T01:53:12.767Z,18.37
2022-09-23T01:55:43.564Z,18.83
2022-09-23T01:58:16.245Z,19.53
2022-09-23T02:00:52.291Z,19.23
2022-09-23T02:03:27.398Z,18.53
2022-09-23T02:06:00.357Z,19.40
2022-09-23T02:08:33.096Z,18.30
2022-09-23T02:11:06.338Z,18.70
2022-09-23T02:13:40.999Z,18.37
2022-09-23T02:16:14.124Z,17.73
2022-09-23T02:18:48.216Z,18.80
2022-09-23T02:21:18.051Z,17.73
2022-09-23T02:23:51.593Z,18.03
2022-09-23T02:26:22.942Z,17.90
2022-09-23T02:28:56.785Z,17.93
2022-09-23T02:31:32.639Z,18.23
2022-09-23T02:34:10.689Z,17.93
2022-09-23T02:36:46.082Z,17.67
2022-09-23T02:39:15.840Z,17.73
2022-09-23T02:41:53.548Z,17.90
2022-09-23T02:44:22.858Z,17.63
2022-09-23T02:46:53.274Z,17.33
2022-09-23T02:49:24.719Z,17.07
2022-09-23T02:51:54.535Z,16.47
2022-09-23T02:54:26.785Z,16.80
2022-09-23T02:56:55.374Z,17.17
2022-09-23T02:59:24.715Z,16.70
2022-09-23T03:02:14.265Z,16.43
2022-09-23T03:04:52.530Z,16.33
2022-09-23T03:07:24.852Z,17.27
2022-09-23T03:10:00.308Z,16.33
2022-09-23T03:12:36.111Z,16.00
2022-09-23T03:15:14.745Z,15.00
2022-09-23T03:17:48.577Z,16.70
2022-09-23T03:20:25.945Z,15.57
2022-09-23T03:22:58.401Z,17.17
2022-09-23T03:25:28.244Z,16.63
2022-09-23T03:27:58.923Z,17.80
2022-09-23T03:30:27.753Z,17.23
2022-09-23T03:33:00.209Z,17.13
2022-09-23T03:35:33.004Z,17.03
2022-09-23T03:38:09.783Z,16.97
2022-09-23T03:40:41.975Z,17.00
2022-09-23T03:43:11.651Z,18.93
2022-09-23T03:45:40.101Z,17.83
2022-09-23T03:48:08.262Z,18.20
2022-09-23T03:50:39.162Z,17.93
2022-09-23T03:53:07.152Z,16.60
2022-09-23T03:55:35.691Z,15.40
2022-09-23T03:58:04.818Z,15.50
2022-09-23T04:00:33.821Z,16.60
2022-09-23T04:03:01.853Z,16.13
2022-09-23T04:05:30.570Z,16.43
2022-09-23T04:07:59.986Z,16.90
2022-09-23T04:10:27.917Z,15.87
2022-09-23T04:12:56.588Z,16.90
2022-09-23T04:15:24.679Z,16.23
2022-09-23T04:17:52.605Z,17.03
2022-09-23T04:20:20.676Z,16.53
2022-09-23T04:22:48.604Z,16.50
2022-09-23T04:25:18.101Z,15.47
2022-09-23T04:27:46.023Z,16.00
2022-09-23T04:30:15.004Z,16.10
2022-09-23T04:32:42.943Z,15.53
2022-09-23T04:35:11.091Z,15.93
2022-09-23T04:37:39.047Z,17.00
2022-09-23T04:40:08.487Z,17.73
2022-09-23T04:42:37.814Z,16.70
2022-09-23T04:45:06.388Z,17.10
2022-09-23T04:47:34.343Z,16.70
2022-09-23T04:50:02.286Z,15.90
2022-09-23T04:52:32.228Z,15.83
2022-09-23T04:55:00.254Z,16.83
2022-09-23T04:57:28.226Z,16.37
2022-09-23T04:59:57.950Z,16.53
2022-09-23T05:02:25.958Z,16.13
2022-09-23T05:04:54.143Z,16.20
2022-09-23T05:07:22.161Z,17.37
2022-09-23T05:09:50.098Z,17.13
2022-09-23T05:12:18.214Z,17.77
2022-09-23T05:14:46.186Z,16.73
2022-09-23T05:17:15.771Z,16.23
2022-09-23T05:19:43.702Z,16.77
2022-09-23T05:22:11.652Z,15.27
2022-09-23T05:24:39.642Z,14.53
2022-09-23T05:27:08.122Z,15.30
2022-09-23T05:29:36.167Z,14.70
2022-09-23T05:32:04.356Z,15.60
2022-09-23T05:34:33.684Z,15.83
2022-09-23T05:37:01.626Z,17.10
2022-09-23T05:39:29.653Z,16.03
2022-09-23T05:42:00.092Z,15.17
2022-09-23T05:44:28.162Z,15.40
2022-09-23T05:46:56.458Z,15.60
2022-09-23T05:49:42.500Z,15.53
2022-09-23T05:52:14.129Z,15.67
2022-09-23T05:54:42.087Z,14.67
2022-09-23T05:57:10.166Z,15.60
2022-09-23T05:59:38.156Z,15.17
2022-09-23T06:02:08.266Z,14.93
2022-09-23T06:05:05.919Z,16.53
2022-09-23T06:07:45.244Z,17.43
2022-09-23T06:10:13.453Z,16.43
2022-09-23T06:12:42.486Z,16.90
2022-09-23T06:15:13.179Z,18.53
2022-09-23T06:17:41.135Z,17.27
2022-09-23T06:20:10.035Z,18.00
2022-09-23T06:22:40.247Z,16.93
2022-09-23T06:25:08.908Z,17.93
2022-09-23T06:27:36.974Z,19.53
2022-09-23T06:30:05.375Z,17.90
2022-09-23T06:32:33.382Z,19.53
2022-09-23T06:35:01.375Z,18.03
2022-09-23T06:37:30.623Z,17.67
2022-09-23T06:40:00.037Z,18.10
2022-09-23T06:42:28.139Z,17.80
2022-09-23T06:44:56.068Z,17.07
2022-09-23T06:47:24.040Z,17.50
2022-09-23T06:49:52.152Z,18.50
2022-09-23T06:52:26.276Z,17.73
2022-09-23T06:54:56.859Z,17.03
2022-09-23T06:57:26.196Z,16.77
2022-09-23T06:59:54.147Z,14.77
2022-09-23T07:02:22.292Z,14.30
2022-09-23T07:04:51.291Z,14.90
2022-09-23T07:07:19.299Z,15.80
2022-09-23T07:09:47.829Z,19.23
2022-09-23T07:12:15.846Z,20.00
2022-09-23T07:14:46.135Z,19.53
2022-09-23T07:17:14.492Z,20.93
2022-09-23T07:19:42.528Z,18.67
2022-09-23T07:22:10.470Z,18.37
2022-09-23T07:24:38.517Z,18.23
2022-09-23T07:27:34.999Z,17.17
2022-09-23T07:30:04.988Z,14.60
2022-09-23T07:32:43.873Z,15.30
2022-09-23T07:35:20.643Z,14.97
2022-09-23T07:37:54.919Z,15.23
2022-09-23T07:40:27.017Z,15.33
2022-09-23T07:42:55.474Z,15.67
2022-09-23T07:45:27.431Z,13.90
2022-09-23T07:47:56.530Z,14.13
2022-09-23T07:50:24.536Z,12.47
2022-09-23T07:52:53.254Z,12.13
2022-09-23T07:55:21.851Z,10.50
2022-09-23T07:57:49.773Z,10.60
2022-09-23T08:00:18.554Z,10.93
2022-09-23T08:02:53.130Z,9.83
2022-09-23T08:05:21.910Z,9.67
2022-09-23T08:07:49.882Z,11.77
2022-09-23T08:10:19.099Z,10.73
2022-09-23T08:12:47.108Z,10.90
2022-09-23T08:15:15.223Z,11.43
2022-09-23T08:17:43.370Z,10.63
2022-09-23T08:20:34.035Z,9.53
2022-09-23T08:23:01.971Z,10.47
2022-09-23T08:25:33.023Z,15.88
2022-09-23T08:28:02.115Z,17.47
2022-09-23T08:30:30.102Z,17.95
2022-09-23T08:32:58.203Z,18.35
2022-09-23T08:35:27.516Z,16.40
2022-09-23T08:37:55.464Z,16.58
2022-09-23T08:40:23.733Z,15.93
2022-09-23T08:42:51.791Z,12.13
2022-09-23T08:45:24.376Z,8.88
2022-09-23T08:47:58.325Z,7.65
2022-09-23T08:50:31.837Z,7.27
2022-09-23T08:53:02.732Z,6.73
2022-09-23T08:55:35.617Z,8.80
2022-09-23T08:58:26.198Z,9.85
2022-09-23T09:01:07.961Z,8.82
2022-09-23T09:03:41.107Z,7.53
2022-09-23T09:06:17.854Z,8.80
2022-09-23T09:08:55.640Z,8.77
2022-09-23T09:11:28.908Z,7.85
2022-09-23T09:14:06.648Z,8.02
2022-09-23T09:17:00.737Z,9.43
2022-09-23T09:19:47.323Z,14.40
2022-09-23T09:22:21.905Z,14.75
2022-09-23T09:24:50.704Z,15.60
2022-09-23T09:27:19.057Z,18.27
2022-09-23T09:29:50.252Z,14.23
2022-09-23T09:32:29.742Z,13.00
2022-09-23T09:35:09.335Z,13.63
2022-09-23T09:37:47.031Z,12.93
2022-09-23T09:40:17.363Z,12.80
2022-09-23T09:42:49.565Z,11.87
2022-09-23T09:45:27.141Z,13.07
2022-09-23T09:48:02.985Z,13.40
2022-09-23T09:50:47.212Z,11.70
2022-09-23T09:53:24.040Z,12.50
2022-09-23T09:56:05.053Z,9.77
2022-09-23T09:58:43.944Z,8.25
2022-09-23T10:01:23.419Z,8.50
2022-09-23T10:03:56.995Z,9.18
2022-09-23T10:06:28.929Z,9.30
2022-09-23T10:09:17.052Z,9.30
2022-09-23T10:12:04.584Z,9.50
2022-09-23T10:14:32.969Z,9.35
2022-09-23T10:17:06.256Z,9.10
2022-09-23T10:19:37.154Z,9.13
2022-09-23T10:22:11.038Z,7.78
2022-09-23T10:24:48.264Z,6.47
2022-09-23T10:27:17.137Z,7.72
2022-09-23T10:29:51.844Z,7.90
2022-09-23T10:32:26.607Z,8.82
2022-09-23T10:34:58.025Z,8.40
2022-09-23T10:37:35.555Z,8.88
2022-09-23T10:40:36.133Z,8.70
2022-09-23T10:43:38.248Z,8.77
2022-09-23T10:46:26.963Z,8.98
2022-09-23T10:49:12.318Z,9.13
2022-09-23T10:51:53.571Z,9.30
2022-09-23T10:54:32.369Z,9.30
2022-09-23T10:57:30.248Z,9.98
2022-09-23T11:00:03.538Z,9.18
2022-09-23T11:03:11.070Z,8.63
2022-09-23T11:05:46.303Z,7.35
2022-09-23T11:08:36.479Z,7.05
2022-09-23T11:11:21.849Z,6.85
2022-09-23T11:14:17.168Z,6.40
2022-09-23T11:16:58.199Z,6.40
2022-09-23T11:19:46.694Z,5.45
2022-09-23T11:22:37.503Z,5.75
2022-09-23T11:25:30.253Z,6.30
2022-09-23T11:28:11.605Z,5.93
2022-09-23T11:30:50.402Z,5.57
2022-09-23T11:33:38.516Z,5.32
2022-09-23T11:36:09.235Z,5.88
2022-09-23T11:38:41.353Z,4.00
2022-09-23T11:41:19.073Z,3.88
2022-09-23T11:43:52.410Z,3.22
2022-09-23T11:46:31.428Z,3.42
2022-09-23T11:49:06.380Z,3.22
2022-09-23T11:51:43.388Z,3.83
2022-09-23T11:54:20.891Z,4.35
2022-09-23T11:56:53.020Z,4.40
2022-09-23T11:59:39.482Z,4.47
2022-09-23T12:02:22.227Z,4.50
2022-09-23T12:05:01.254Z,4.65
2022-09-23T12:07:39.358Z,4.70
2022-09-23T12:10:10.135Z,5.03
2022-09-23T12:12:47.768Z,4.40
2022-09-23T12:15:27.916Z,4.90
2022-09-23T12:18:28.946Z,4.65
2022-09-23T12:24:24.700Z,4.30
2022-09-23T12:26:56.227Z,4.47
2022-09-23T12:29:26.764Z,3.60
2022-09-23T12:31:55.629Z,4.22
2022-09-23T12:34:30.761Z,4.45
2022-09-23T12:37:04.287Z,4.07
2022-09-23T12:39:34.536Z,4.00
2022-09-23T12:42:05.266Z,3.97
2022-09-23T12:44:37.663Z,3.90
2022-09-23T12:47:37.867Z,4.20
2022-09-23T12:50:38.884Z,4.30
2022-09-23T12:53:51.747Z,3.90
2022-09-23T12:56:24.000Z,4.27
2022-09-23T12:59:03.452Z,4.50
2022-09-23T13:01:38.647Z,4.77
2022-09-23T13:04:24.199Z,4.30
2022-09-23T13:06:59.137Z,4.30
2022-09-23T13:09:30.129Z,4.60
2022-09-23T13:12:02.138Z,4.75
2022-09-23T13:14:32.645Z,4.40
2022-09-23T13:17:01.181Z,4.53
2022-09-23T13:19:58.471Z,4.57
2022-09-23T13:22:42.626Z,5.38
2022-09-23T13:25:20.660Z,4.88
2022-09-23T13:27:53.814Z,4.93
2022-09-23T13:30:26.394Z,5.07
2022-09-23T13:33:04.765Z,5.70
2022-09-23T13:35:37.369Z,4.60
2022-09-23T13:38:12.694Z,4.28
2022-09-23T13:40:42.528Z,5.00
2022-09-23T13:43:20.226Z,4.22
2022-09-23T13:45:48.442Z,5.00
2022-09-23T13:48:16.990Z,4.65
2022-09-23T13:50:48.854Z,4.80
2022-09-23T13:53:22.985Z,4.82
2022-09-23T13:56:01.487Z,5.07
2022-09-23T13:58:32.559Z,4.97
2022-09-23T14:01:01.215Z,5.85
2022-09-23T14:03:36.166Z,5.03
2022-09-23T14:06:08.613Z,5.13
2022-09-23T14:08:39.649Z,4.75
2022-09-23T14:11:07.658Z,5.50
2022-09-23T14:13:43.663Z,5.67
2022-09-23T14:16:15.088Z,5.87
2022-09-23T14:18:46.656Z,6.15
2022-09-23T14:21:35.045Z,6.07
2022-09-23T14:24:14.693Z,6.63
2022-09-23T14:26:45.796Z,8.60
2022-09-23T14:29:18.646Z,7.60
2022-09-23T14:31:56.737Z,7.30
2022-09-23T14:34:46.525Z,6.28
2022-09-23T14:37:40.001Z,5.50
2022-09-23T14:40:14.719Z,5.93
2022-09-23T14:42:46.403Z,5.87
2022-09-23T14:45:19.600Z,5.83
2022-09-23T14:47:51.008Z,6.07
2022-09-23T14:50:39.683Z,6.57
2022-09-23T14:53:32.019Z,6.47
2022-09-23T14:56:14.624Z,11.10
2022-09-23T14:58:50.990Z,8.20
2022-09-23T15:01:38.648Z,8.40
2022-09-23T15:04:16.192Z,8.00
2022-09-23T15:06:48.929Z,7.60
2022-09-23T15:09:23.644Z,7.27
2022-09-23T15:11:58.232Z,6.60
2022-09-23T15:14:37.803Z,6.85
2022-09-23T15:17:15.767Z,6.97
2022-09-23T15:19:43.875Z,6.55
2022-09-23T15:22:13.000Z,7.33
2022-09-23T15:24:46.646Z,7.90
2022-09-23T15:27:32.331Z,7.83
2022-09-23T15:30:17.255Z,7.77
2022-09-23T15:32:47.606Z,6.53
2022-09-23T15:35:16.775Z,6.53
2022-09-23T15:37:44.830Z,6.22
2022-09-23T15:40:19.610Z,8.45
2022-09-23T15:42:52.590Z,8.35
2022-09-23T15:45:22.412Z,6.95
2022-09-23T15:47:52.365Z,7.60
2022-09-23T15:50:20.802Z,7.13
2022-09-23T15:52:50.291Z,7.15
2022-09-23T15:55:21.872Z,8.10
2022-09-23T15:57:50.415Z,6.88
2022-09-23T16:00:18.624Z,6.65
2022-09-23T16:02:48.930Z,6.43
2022-09-23T16:05:26.594Z,7.20
2022-09-23T16:07:54.589Z,9.30
2022-09-23T16:10:23.712Z,9.57
2022-09-23T16:12:54.899Z,10.80
2022-09-23T16:15:24.676Z,10.32
2022-09-23T16:17:52.841Z,9.93
2022-09-23T16:20:22.926Z,11.30
2022-09-23T16:22:55.603Z,14.07
2022-09-23T16:25:28.347Z,19.27
2022-09-23T16:27:56.512Z,17.67
2022-09-23T16:30:25.081Z,15.27
2022-09-23T16:32:53.063Z,14.70
2022-09-23T16:35:23.574Z,13.80
2022-09-23T16:37:52.778Z,13.57
2022-09-23T16:40:23.110Z,13.30
2022-09-23T16:42:55.003Z,12.87
2022-09-23T16:45:23.654Z,13.23
2022-09-23T16:47:52.745Z,14.63
2022-09-23T16:50:23.778Z,16.50
2022-09-23T16:52:56.168Z,18.97
2022-09-23T16:55:25.789Z,17.47
2022-09-23T16:57:54.625Z,14.33
2022-09-23T17:00:45.596Z,12.37
2022-09-23T17:03:31.661Z,13.47
2022-09-23T17:06:04.649Z,13.53
2022-09-23T17:08:35.854Z,13.33
2022-09-23T17:11:03.840Z,13.27
2022-09-23T17:13:32.511Z,13.53
2022-09-23T17:16:00.804Z,12.70
2022-09-23T17:18:29.726Z,12.70
2022-09-23T17:21:00.405Z,14.47
2022-09-23T17:23:29.646Z,14.73
2022-09-23T17:25:58.065Z,13.33
2022-09-23T17:28:26.573Z,12.73
2022-09-23T17:30:58.746Z,13.27
2022-09-23T17:33:26.998Z,17.42
2022-09-23T17:35:54.994Z,13.32
2022-09-23T17:38:28.913Z,14.55
2022-09-23T17:40:59.129Z,14.30
2022-09-23T17:43:27.701Z,13.73
2022-09-23T17:45:57.296Z,14.03
2022-09-23T17:48:26.298Z,14.43
2022-09-23T17:50:57.933Z,14.03
2022-09-23T17:53:27.256Z,13.70
2022-09-23T17:55:59.312Z,14.67
2022-09-23T17:58:28.479Z,13.70
2022-09-23T18:00:57.356Z,13.67
2022-09-23T18:03:26.844Z,11.97
2022-09-23T18:05:54.836Z,12.20
2022-09-23T18:08:22.815Z,12.40
2022-09-23T18:10:52.141Z,12.73
2022-09-23T18:13:20.081Z,12.03
2022-09-23T18:15:48.055Z,11.40
2022-09-23T18:18:15.996Z,12.13
2022-09-23T18:20:44.128Z,12.13
2022-09-23T18:23:12.308Z,12.90
2022-09-23T18:25:40.338Z,14.13
2022-09-23T18:28:09.703Z,14.30
2022-09-23T18:30:37.672Z,14.67
2022-09-23T18:33:05.674Z,17.07
2022-09-23T18:35:33.653Z,19.57
2022-09-23T18:38:01.610Z,16.77
2022-09-23T18:40:29.640Z,17.43
2022-09-23T18:42:57.627Z,18.87
2022-09-23T18:45:27.023Z,18.43
2022-09-23T18:48:12.739Z,14.90
2022-09-23T18:50:40.892Z,14.37
2022-09-23T18:53:09.286Z,15.00
2022-09-23T18:55:37.815Z,21.40
2022-09-23T18:58:07.406Z,16.47
2022-09-23T19:00:36.983Z,19.37
2022-09-23T19:03:05.038Z,20.77
2022-09-23T19:05:35.202Z,21.50
2022-09-23T19:08:03.616Z,22.70
2022-09-23T19:10:31.633Z,23.63
2022-09-23T19:12:59.575Z,21.97
2022-09-23T19:15:27.883Z,22.47
2022-09-23T19:17:57.213Z,22.37
2022-09-23T19:20:25.238Z,25.30
2022-09-23T19:22:53.225Z,28.90
2022-09-23T19:25:21.205Z,27.53
2022-09-23T19:27:49.142Z,27.70
2022-09-23T19:30:19.164Z,23.93
2022-09-23T19:32:48.977Z,22.87
2022-09-23T19:35:18.382Z,20.60
2022-09-23T19:37:49.279Z,23.20
2022-09-23T19:40:17.430Z,21.90
2022-09-23T19:42:45.415Z,18.50
2022-09-23T19:45:13.347Z,17.63
2022-09-23T19:47:41.306Z,17.27
2022-09-23T19:50:09.752Z,16.43
2022-09-23T19:52:39.067Z,15.90
2022-09-23T19:55:08.259Z,14.90
2022-09-23T19:57:36.200Z,14.60
2022-09-23T20:00:05.372Z,16.87
2022-09-23T20:02:33.402Z,16.23
2022-09-23T20:05:01.427Z,18.03
2022-09-23T20:07:29.451Z,17.87
2022-09-23T20:09:58.739Z,17.97
2022-09-23T20:12:26.691Z,18.37
2022-09-23T20:14:54.615Z,17.90
2022-09-23T20:17:22.584Z,20.07
2022-09-23T20:19:50.514Z,19.37
2022-09-23T20:22:32.402Z,18.97
2022-09-23T20:25:03.040Z,18.20
2022-09-23T20:27:31.585Z,16.13
2022-09-23T20:30:00.473Z,14.43
2022-09-23T20:32:29.062Z,14.20
2022-09-23T20:34:57.218Z,15.10
2022-09-23T20:37:25.866Z,14.17
2022-09-23T20:39:54.214Z,13.07
2022-09-23T20:42:23.536Z,14.20
2022-09-23T20:44:51.498Z,14.10
2022-09-23T20:47:19.729Z,14.93
2022-09-23T20:49:48.929Z,13.63
2022-09-23T20:52:20.301Z,9.77
2022-09-23T20:54:50.471Z,9.47
2022-09-23T20:57:20.540Z,9.23
2022-09-23T20:59:49.912Z,8.77
2022-09-23T21:02:17.933Z,9.17
2022-09-23T21:04:45.986Z,11.60
2022-09-23T21:07:13.977Z,19.53
2022-09-23T21:09:41.946Z,26.17
2022-09-23T21:12:09.930Z,30.70
2022-09-23T21:14:37.868Z,26.87
2022-09-23T21:17:07.215Z,26.63
2022-09-23T21:19:37.501Z,29.90
2022-09-23T21:22:05.414Z,29.17
2022-09-23T21:25:03.889Z,27.60
2022-09-23T21:27:22.801Z,31.47
2022-09-23T21:29:50.772Z,35.00
2022-09-23T21:32:20.052Z,38.87
2022-09-23T21:34:48.321Z,33.37
2022-09-23T21:37:16.306Z,33.13
2022-09-23T21:40:04.922Z,39.23
2022-09-23T21:42:32.972Z,34.60
2022-09-23T21:45:01.748Z,30.43
2022-09-23T21:47:32.370Z,25.60
2022-09-23T21:50:01.383Z,22.50
2022-09-23T21:52:29.406Z,20.40
2022-09-23T21:54:57.349Z,21.27
2022-09-23T21:57:25.908Z,20.57
2022-09-23T21:59:54.192Z,20.77
2022-09-23T22:02:23.406Z,19.53
2022-09-23T22:04:52.675Z,17.83
2022-09-23T22:07:21.048Z,20.37
2022-09-23T22:09:49.012Z,32.43
2022-09-23T22:12:16.975Z,28.07
2022-09-23T22:14:47.234Z,32.10
2022-09-23T22:17:16.480Z,34.50
2022-09-23T22:19:47.247Z,31.93
2022-09-23T22:22:18.073Z,30.03
2022-09-23T22:24:47.519Z,31.27
2022-09-23T22:27:18.084Z,31.70
2022-09-23T22:30:03.379Z,26.93
2022-09-23T22:32:46.148Z,25.17
2022-09-23T22:35:17.781Z,22.53
2022-09-23T22:37:47.291Z,20.97
2022-09-23T22:40:16.699Z,19.17
2022-09-23T22:42:45.382Z,20.57
2022-09-23T22:45:13.983Z,20.90
2022-09-23T22:47:45.426Z,17.83
2022-09-23T22:50:15.113Z,16.93
2022-09-23T22:52:43.717Z,14.70
2022-09-23T22:55:13.634Z,14.60
2022-09-23T22:57:41.656Z,14.37
2022-09-23T23:00:12.225Z,14.30
2022-09-23T23:02:41.858Z,14.00
2022-09-23T23:05:10.238Z,14.83
2022-09-23T23:07:38.324Z,14.80
2022-09-23T23:10:08.819Z,14.57
2022-09-23T23:12:39.573Z,13.97
2022-09-23T23:15:09.286Z,13.83
2022-09-23T23:17:38.246Z,15.07
2022-09-23T23:20:07.154Z,14.53
2022-09-23T23:22:35.113Z,16.97
2022-09-23T23:25:03.103Z,19.47
2022-09-23T23:27:31.110Z,21.13
2022-09-23T23:30:00.421Z,23.30
2022-09-23T23:32:28.532Z,24.73
2022-09-23T23:34:56.500Z,30.43
2022-09-23T23:37:24.489Z,28.87
2022-09-23T23:39:52.421Z,29.80
2022-09-23T23:42:20.371Z,28.27
2022-09-23T23:44:48.308Z,24.63
2022-09-23T23:47:17.624Z,25.87
2022-09-23T23:49:45.575Z,25.30
2022-09-23T23:52:13.552Z,25.43
2022-09-23T23:54:41.551Z,26.37
2022-09-23T23:57:09.516Z,24.27
2022-09-23T23:59:37.691Z,27.77
